sensor_id;sensor_type;location;lat;lon;timestamp;pressure;altitude;pressure_sealevel;temperature;humidity
70407;BME280;57821;52.202;0.154;2023-05-20T00:00:21;102880.72;;;9.21;80.81
70407;BME280;57821;52.202;0.154;2023-05-20T00:03:08;102883.25;;;9.19;81.49
70407;BME280;57821;52.202;0.154;2023-05-20T00:05:55;102882.25;;;9.16;81.75
70407;BME280;57821;52.202;0.154;2023-05-20T00:08:42;102889.09;;;9.14;81.12
70407;BME280;57821;52.202;0.154;2023-05-20T00:11:28;102882.16;;;9.13;81.80
70407;BME280;57821;52.202;0.154;2023-05-20T00:14:15;102883.81;;;9.11;81.68
70407;BME280;57821;52.202;0.154;2023-05-20T00:17:02;102884.59;;;9.08;81.91
70407;BME280;57821;52.202;0.154;2023-05-20T00:19:49;102880.16;;;9.05;81.94
70407;BME280;57821;52.202;0.154;2023-05-20T00:22:36;102881.81;;;9.03;81.91
70407;BME280;57821;52.202;0.154;2023-05-20T00:25:23;102880.00;;;9.01;82.15
70407;BME280;57821;52.202;0.154;2023-05-20T00:28:10;102879.94;;;8.99;82.05
70407;BME280;57821;52.202;0.154;2023-05-20T00:30:56;102874.69;;;8.96;82.21
70407;BME280;57821;52.202;0.154;2023-05-20T00:33:43;102864.19;;;8.93;82.39
70407;BME280;57821;52.202;0.154;2023-05-20T00:36:30;102874.56;;;8.93;82.52
70407;BME280;57821;52.202;0.154;2023-05-20T00:39:17;102864.94;;;8.89;83.30
70407;BME280;57821;52.202;0.154;2023-05-20T00:42:04;102864.94;;;8.89;82.78
70407;BME280;57821;52.202;0.154;2023-05-20T00:44:52;102858.72;;;8.84;83.08
70407;BME280;57821;52.202;0.154;2023-05-20T00:47:39;102869.88;;;8.83;83.15
70407;BME280;57821;52.202;0.154;2023-05-20T00:50:27;102863.75;;;8.81;83.71
70407;BME280;57821;52.202;0.154;2023-05-20T00:53:16;102863.66;;;8.78;83.35
70407;BME280;57821;52.202;0.154;2023-05-20T00:56:03;102856.72;;;8.77;84.28
70407;BME280;57821;52.202;0.154;2023-05-20T00:58:51;102862.69;;;8.76;83.68
70407;BME280;57821;52.202;0.154;2023-05-20T01:01:37;102855.69;;;8.74;84.04
70407;BME280;57821;52.202;0.154;2023-05-20T01:04:25;102864.25;;;8.71;83.93
70407;BME280;57821;52.202;0.154;2023-05-20T01:07:16;102856.25;;;8.65;84.32
70407;BME280;57821;52.202;0.154;2023-05-20T01:10:04;102857.97;;;8.64;84.50
70407;BME280;57821;52.202;0.154;2023-05-20T01:12:53;102837.75;;;8.54;84.49
70407;BME280;57821;52.202;0.154;2023-05-20T01:15:45;102856.09;;;8.60;84.37
70407;BME280;57821;52.202;0.154;2023-05-20T01:18:34;102854.19;;;8.56;84.64
70407;BME280;57821;52.202;0.154;2023-05-20T01:21:23;102851.50;;;8.53;84.69
70407;BME280;57821;52.202;0.154;2023-05-20T01:24:13;102856.59;;;8.52;84.96
70407;BME280;57821;52.202;0.154;2023-05-20T01:26:59;102848.75;;;8.49;85.05
70407;BME280;57821;52.202;0.154;2023-05-20T01:29:47;102846.91;;;8.46;85.38
70407;BME280;57821;52.202;0.154;2023-05-20T01:32:37;102853.78;;;8.46;85.66
70407;BME280;57821;52.202;0.154;2023-05-20T01:35:27;102845.88;;;8.41;85.26
70407;BME280;57821;52.202;0.154;2023-05-20T01:38:16;102853.63;;;8.41;85.16
70407;BME280;57821;52.202;0.154;2023-05-20T01:41:05;102843.13;;;8.37;85.66
70407;BME280;57821;52.202;0.154;2023-05-20T01:43:53;102845.56;;;8.34;85.56
70407;BME280;57821;52.202;0.154;2023-05-20T01:46:40;102840.28;;;8.31;85.29
70407;BME280;57821;52.202;0.154;2023-05-20T01:49:27;102842.72;;;8.27;85.99
70407;BME280;57821;52.202;0.154;2023-05-20T01:52:14;102837.44;;;8.24;86.10
70407;BME280;57821;52.202;0.154;2023-05-20T01:55:01;102843.34;;;8.22;86.44
70407;BME280;57821;52.202;0.154;2023-05-20T01:57:48;102840.72;;;8.20;86.46
70407;BME280;57821;52.202;0.154;2023-05-20T02:00:35;102842.38;;;8.18;86.10
70407;BME280;57821;52.202;0.154;2023-05-20T02:03:23;102831.88;;;8.15;86.54
70407;BME280;57821;52.202;0.154;2023-05-20T02:06:10;102830.16;;;8.14;86.33
70407;BME280;57821;52.202;0.154;2023-05-20T02:08:56;102836.13;;;8.13;86.87
70407;BME280;57821;52.202;0.154;2023-05-20T02:11:43;102836.97;;;8.12;87.19
70407;BME280;57821;52.202;0.154;2023-05-20T02:14:30;102829.19;;;8.12;87.53
70407;BME280;57821;52.202;0.154;2023-05-20T02:17:18;102811.69;;;8.05;86.75
70407;BME280;57821;52.202;0.154;2023-05-20T02:20:06;102833.56;;;8.13;86.73
70407;BME280;57821;52.202;0.154;2023-05-20T02:22:53;102828.38;;;8.13;87.77
70407;BME280;57821;52.202;0.154;2023-05-20T02:25:40;102826.63;;;8.12;87.12
70407;BME280;57821;52.202;0.154;2023-05-20T02:28:29;102825.72;;;8.12;87.59
70407;BME280;57821;52.202;0.154;2023-05-20T02:31:16;102827.38;;;8.10;87.34
70407;BME280;57821;52.202;0.154;2023-05-20T02:34:03;102819.56;;;8.08;87.66
70407;BME280;57821;52.202;0.154;2023-05-20T02:36:50;102822.97;;;8.07;88.18
70407;BME280;57821;52.202;0.154;2023-05-20T02:39:37;102822.84;;;8.04;87.87
70407;BME280;57821;52.202;0.154;2023-05-20T02:42:25;102814.16;;;8.02;87.93
70407;BME280;57821;52.202;0.154;2023-05-20T02:45:12;102818.44;;;8.02;88.04
70407;BME280;57821;52.202;0.154;2023-05-20T02:47:58;102820.97;;;8.00;88.68
70407;BME280;57821;52.202;0.154;2023-05-20T02:50:46;102820.09;;;8.00;88.25
70407;BME280;57821;52.202;0.154;2023-05-20T02:53:33;102814.03;;;7.99;88.93
70407;BME280;57821;52.202;0.154;2023-05-20T02:56:20;102815.69;;;7.97;88.93
70407;BME280;57821;52.202;0.154;2023-05-20T02:59:07;102817.44;;;7.98;88.63
70407;BME280;57821;52.202;0.154;2023-05-20T03:01:54;102822.59;;;7.98;88.30
70407;BME280;57821;52.202;0.154;2023-05-20T03:04:41;102814.81;;;7.97;89.24
70407;BME280;57821;52.202;0.154;2023-05-20T03:07:28;102814.81;;;7.97;89.06
70407;BME280;57821;52.202;0.154;2023-05-20T03:10:15;102813.94;;;7.96;89.19
70407;BME280;57821;52.202;0.154;2023-05-20T03:13:04;102819.09;;;7.96;89.26
70407;BME280;57821;52.202;0.154;2023-05-20T03:15:51;102812.16;;;7.95;89.28
70407;BME280;57821;52.202;0.154;2023-05-20T03:18:38;102806.09;;;7.95;90.05
70407;BME280;57821;52.202;0.154;2023-05-20T03:21:25;102800.94;;;7.95;89.69
70407;BME280;57821;52.202;0.154;2023-05-20T03:24:12;102791.34;;;7.92;89.96
70407;BME280;57821;52.202;0.154;2023-05-20T03:26:59;102793.94;;;7.92;89.89
70407;BME280;57821;52.202;0.154;2023-05-20T03:29:46;102799.09;;;7.92;89.95
70407;BME280;57821;52.202;0.154;2023-05-20T03:32:33;102798.19;;;7.90;90.35
70407;BME280;57821;52.202;0.154;2023-05-20T03:35:20;102799.81;;;7.88;89.89
70407;BME280;57821;52.202;0.154;2023-05-20T03:38:07;102797.22;;;7.88;89.93
70407;BME280;57821;52.202;0.154;2023-05-20T03:40:56;102790.31;;;7.87;89.91
70407;BME280;57821;52.202;0.154;2023-05-20T03:43:43;102793.72;;;7.86;89.87
70407;BME280;57821;52.202;0.154;2023-05-20T03:46:30;102792.78;;;7.84;89.75
70407;BME280;57821;52.202;0.154;2023-05-20T03:49:17;102782.38;;;7.82;90.46
70407;BME280;57821;52.202;0.154;2023-05-20T03:52:05;102787.47;;;7.81;89.95
70407;BME280;57821;52.202;0.154;2023-05-20T03:54:52;102790.03;;;7.79;89.80
70407;BME280;57821;52.202;0.154;2023-05-20T03:57:40;102779.47;;;7.75;90.31
70407;BME280;57821;52.202;0.154;2023-05-20T04:00:26;102787.13;;;7.72;90.08
70407;BME280;57821;52.202;0.154;2023-05-20T04:03:13;102788.81;;;7.71;90.22
70407;BME280;57821;52.202;0.154;2023-05-20T04:06:01;102788.75;;;7.70;90.08
70407;BME280;57821;52.202;0.154;2023-05-20T04:08:48;102783.47;;;7.67;90.68
70407;BME280;57821;52.202;0.154;2023-05-20T04:11:35;102786.88;;;7.66;89.96
70407;BME280;57821;52.202;0.154;2023-05-20T04:14:22;102792.78;;;7.63;90.79
70407;BME280;57821;52.202;0.154;2023-05-20T04:17:09;102795.31;;;7.62;90.37
70407;BME280;57821;52.202;0.154;2023-05-20T04:19:56;102787.50;;;7.60;90.52
70407;BME280;57821;52.202;0.154;2023-05-20T04:22:44;102797.84;;;7.60;90.80
70407;BME280;57821;52.202;0.154;2023-05-20T04:25:31;102793.41;;;7.58;90.90
70407;BME280;57821;52.202;0.154;2023-05-20T04:28:18;102801.16;;;7.58;91.63
70407;BME280;57821;52.202;0.154;2023-05-20T04:31:05;102804.63;;;7.58;91.53
70407;BME280;57821;52.202;0.154;2023-05-20T04:33:55;102808.16;;;7.60;91.93
70407;BME280;57821;52.202;0.154;2023-05-20T04:36:42;102809.16;;;7.64;92.07
70407;BME280;57821;52.202;0.154;2023-05-20T04:39:29;102805.91;;;7.68;91.75
70407;BME280;57821;52.202;0.154;2023-05-20T04:42:16;102794.78;;;7.70;92.24
70407;BME280;57821;52.202;0.154;2023-05-20T04:45:03;102802.88;;;7.78;92.41
70407;BME280;57821;52.202;0.154;2023-05-20T04:47:50;102799.56;;;7.82;92.30
70407;BME280;57821;52.202;0.154;2023-05-20T04:50:37;102789.47;;;7.88;92.36
70407;BME280;57821;52.202;0.154;2023-05-20T04:53:26;102793.94;;;7.92;92.29
70407;BME280;57821;52.202;0.154;2023-05-20T04:56:12;102799.31;;;7.97;91.89
70407;BME280;57821;52.202;0.154;2023-05-20T04:58:59;102789.97;;;8.00;93.06
70407;BME280;57821;52.202;0.154;2023-05-20T05:01:46;102797.00;;;8.04;92.43
70407;BME280;57821;52.202;0.154;2023-05-20T05:04:34;102797.25;;;8.10;91.98
70407;BME280;57821;52.202;0.154;2023-05-20T05:07:21;102794.88;;;8.15;92.59
70407;BME280;57821;52.202;0.154;2023-05-20T05:10:08;102788.16;;;8.20;92.49
70407;BME280;57821;52.202;0.154;2023-05-20T05:12:56;102787.50;;;8.25;92.57
70407;BME280;57821;52.202;0.154;2023-05-20T05:15:43;102785.13;;;8.30;92.02
70407;BME280;57821;52.202;0.154;2023-05-20T05:18:30;102786.25;;;8.37;92.81
70407;BME280;57821;52.202;0.154;2023-05-20T05:21:17;102789.88;;;8.42;92.68
70407;BME280;57821;52.202;0.154;2023-05-20T05:24:06;102791.00;;;8.48;93.30
70407;BME280;57821;52.202;0.154;2023-05-20T05:26:54;102782.44;;;8.51;92.97
70407;BME280;57821;52.202;0.154;2023-05-20T05:29:41;102787.16;;;8.61;92.99
70407;BME280;57821;52.202;0.154;2023-05-20T05:32:28;102778.66;;;8.65;92.88
70407;BME280;57821;52.202;0.154;2023-05-20T05:35:15;102777.25;;;8.73;93.00
70407;BME280;57821;52.202;0.154;2023-05-20T05:38:02;102784.38;;;8.80;92.94
70407;BME280;57821;52.202;0.154;2023-05-20T05:40:49;102785.47;;;8.87;93.37
70407;BME280;57821;52.202;0.154;2023-05-20T05:43:36;102782.28;;;8.94;92.94
70407;BME280;57821;52.202;0.154;2023-05-20T05:46:24;102786.81;;;8.99;93.40
70407;BME280;57821;52.202;0.154;2023-05-20T05:49:11;102780.19;;;9.07;92.75
70407;BME280;57821;52.202;0.154;2023-05-20T05:51:58;102783.91;;;9.16;93.30
70407;BME280;57821;52.202;0.154;2023-05-20T05:54:45;102776.34;;;9.22;93.30
70407;BME280;57821;52.202;0.154;2023-05-20T05:57:32;102786.97;;;9.29;93.74
70407;BME280;57821;52.202;0.154;2023-05-20T06:00:20;102782.06;;;9.37;92.96
70407;BME280;57821;52.202;0.154;2023-05-20T06:03:08;102778.88;;;9.45;93.44
70407;BME280;57821;52.202;0.154;2023-05-20T06:05:56;102784.31;;;9.53;93.50
70407;BME280;57821;52.202;0.154;2023-05-20T06:08:43;102793.25;;;9.63;93.79
70407;BME280;57821;52.202;0.154;2023-05-20T06:11:31;102784.09;;;9.72;93.65
70407;BME280;57821;52.202;0.154;2023-05-20T06:14:18;102768.72;;;9.78;93.97
70407;BME280;57821;52.202;0.154;2023-05-20T06:16:45;102773.38;;;9.88;94.06
70407;BME280;57821;52.202;0.154;2023-05-20T06:19:11;102762.38;;;9.96;93.78
70407;BME280;57821;52.202;0.154;2023-05-20T06:21:38;102764.41;;;10.06;93.67
70407;BME280;57821;52.202;0.154;2023-05-20T06:24:05;102767.25;;;10.15;93.73
70407;BME280;57821;52.202;0.154;2023-05-20T06:26:34;102762.34;;;10.22;94.10
70407;BME280;57821;52.202;0.154;2023-05-20T06:29:02;102761.75;;;10.33;93.85
70407;BME280;57821;52.202;0.154;2023-05-20T06:31:28;102764.63;;;10.42;93.77
70407;BME280;57821;52.202;0.154;2023-05-20T06:33:56;102748.44;;;10.50;94.16
70407;BME280;57821;52.202;0.154;2023-05-20T06:36:22;102747.84;;;10.59;93.83
70407;BME280;57821;52.202;0.154;2023-05-20T06:38:49;102755.03;;;10.69;94.07
70407;BME280;57821;52.202;0.154;2023-05-20T06:41:16;102753.53;;;10.79;93.92
70407;BME280;57821;52.202;0.154;2023-05-20T06:43:43;102753.81;;;10.88;93.79
70407;BME280;57821;52.202;0.154;2023-05-20T06:46:28;102754.97;;;10.99;93.83
70407;BME280;57821;52.202;0.154;2023-05-20T06:49:03;102759.56;;;11.09;93.42
70407;BME280;57821;52.202;0.154;2023-05-20T06:51:29;102758.94;;;11.18;93.18
70407;BME280;57821;52.202;0.154;2023-05-20T06:53:56;102754.00;;;11.28;93.21
70407;BME280;57821;52.202;0.154;2023-05-20T06:56:23;102755.97;;;11.38;92.92
70407;BME280;57821;52.202;0.154;2023-05-20T06:58:49;102757.06;;;11.48;92.48
70407;BME280;57821;52.202;0.154;2023-05-20T07:01:16;102759.06;;;11.58;91.95
70407;BME280;57821;52.202;0.154;2023-05-20T07:03:44;102757.59;;;11.69;91.99
70407;BME280;57821;52.202;0.154;2023-05-20T07:06:11;102759.59;;;11.79;91.25
70407;BME280;57821;52.202;0.154;2023-05-20T07:08:38;102752.03;;;11.90;91.50
70407;BME280;57821;52.202;0.154;2023-05-20T07:11:05;102749.66;;;12.01;90.41
70407;BME280;57821;52.202;0.154;2023-05-20T07:13:32;102749.88;;;12.10;90.17
70407;BME280;57821;52.202;0.154;2023-05-20T07:15:58;102747.50;;;12.20;90.27
70407;BME280;57821;52.202;0.154;2023-05-20T07:18:26;102751.22;;;12.31;89.48
70407;BME280;57821;52.202;0.154;2023-05-20T07:20:54;102745.34;;;12.42;89.38
70407;BME280;57821;52.202;0.154;2023-05-20T07:23:47;102736.84;;;12.50;88.40
70407;BME280;57821;52.202;0.154;2023-05-20T07:26:14;102744.91;;;12.62;88.42
70407;BME280;57821;52.202;0.154;2023-05-20T07:28:40;102752.06;;;12.74;88.31
70407;BME280;57821;52.202;0.154;2023-05-20T07:31:07;102750.53;;;12.85;88.07
70407;BME280;57821;52.202;0.154;2023-05-20T07:33:40;102748.16;;;12.97;87.39
70407;BME280;57821;52.202;0.154;2023-05-20T07:36:07;102755.31;;;13.09;87.21
70407;BME280;57821;52.202;0.154;2023-05-20T07:38:38;102751.16;;;13.19;86.19
70407;BME280;57821;52.202;0.154;2023-05-20T07:41:07;102746.16;;;13.31;86.15
70407;BME280;57821;52.202;0.154;2023-05-20T07:43:34;102740.19;;;13.38;85.85
70407;BME280;57821;52.202;0.154;2023-05-20T07:46:02;102743.03;;;13.53;85.11
70407;BME280;57821;52.202;0.154;2023-05-20T07:48:28;102735.38;;;13.62;83.87
70407;BME280;57821;52.202;0.154;2023-05-20T07:50:55;102738.16;;;13.74;83.58
70407;BME280;57821;52.202;0.154;2023-05-20T07:53:22;102734.84;;;13.84;83.23
70407;BME280;57821;52.202;0.154;2023-05-20T07:55:48;102735.00;;;13.98;83.02
70407;BME280;57821;52.202;0.154;2023-05-20T07:58:16;102729.97;;;14.09;81.81
70407;BME280;57821;52.202;0.154;2023-05-20T08:00:43;102727.47;;;14.19;81.33
70407;BME280;57821;52.202;0.154;2023-05-20T08:03:10;102723.25;;;14.29;80.08
70407;BME280;57821;52.202;0.154;2023-05-20T08:05:48;102726.91;;;14.42;80.10
70407;BME280;57821;52.202;0.154;2023-05-20T08:08:15;102724.44;;;14.54;79.56
70407;BME280;57821;52.202;0.154;2023-05-20T08:10:53;102723.66;;;14.64;78.34
70407;BME280;57821;52.202;0.154;2023-05-20T08:13:23;102720.28;;;14.72;77.66
70407;BME280;57821;52.202;0.154;2023-05-20T08:15:52;102703.78;;;14.76;77.21
70407;BME280;57821;52.202;0.154;2023-05-20T08:18:19;102717.91;;;14.95;76.96
70407;BME280;57821;52.202;0.154;2023-05-20T08:20:46;102716.25;;;15.05;76.75
70407;BME280;57821;52.202;0.154;2023-05-20T08:23:13;102711.09;;;15.15;75.63
70407;BME280;57821;52.202;0.154;2023-05-20T08:25:40;102710.31;;;15.27;74.61
70407;BME280;57821;52.202;0.154;2023-05-20T08:28:07;102714.78;;;15.37;74.45
70407;BME280;57821;52.202;0.154;2023-05-20T08:30:36;102716.59;;;15.47;73.97
70407;BME280;57821;52.202;0.154;2023-05-20T08:33:02;102704.50;;;15.58;73.55
70407;BME280;57821;52.202;0.154;2023-05-20T08:35:30;102708.91;;;15.69;72.98
70407;BME280;57821;52.202;0.154;2023-05-20T08:37:57;102702.00;;;15.80;72.76
70407;BME280;57821;52.202;0.154;2023-05-20T08:40:25;102716.91;;;15.93;72.20
70407;BME280;57821;52.202;0.154;2023-05-20T08:42:52;102711.72;;;16.05;71.18
70407;BME280;57821;52.202;0.154;2023-05-20T08:45:20;102710.91;;;16.15;70.84
70407;BME280;57821;52.202;0.154;2023-05-20T08:47:47;102711.81;;;16.31;70.02
70407;BME280;57821;52.202;0.154;2023-05-20T08:50:15;102712.75;;;16.43;69.21
70407;BME280;57821;52.202;0.154;2023-05-20T08:52:44;102704.94;;;16.48;68.49
70407;BME280;57821;52.202;0.154;2023-05-20T08:55:14;102691.84;;;16.59;68.12
70407;BME280;57821;52.202;0.154;2023-05-20T08:57:41;102702.38;;;16.80;67.31
70407;BME280;57821;52.202;0.154;2023-05-20T09:00:08;102700.66;;;16.91;66.58
70407;BME280;57821;52.202;0.154;2023-05-20T09:02:36;102705.88;;;17.02;64.98
70407;BME280;57821;52.202;0.154;2023-05-20T09:05:03;102693.69;;;17.10;65.09
70407;BME280;57821;52.202;0.154;2023-05-20T09:07:30;102700.66;;;17.24;64.84
70407;BME280;57821;52.202;0.154;2023-05-20T09:09:57;102682.31;;;17.35;63.65
70407;BME280;57821;52.202;0.154;2023-05-20T09:12:24;102686.66;;;17.47;62.83
70407;BME280;57821;52.202;0.154;2023-05-20T09:14:50;102683.13;;;17.55;62.35
70407;BME280;57821;52.202;0.154;2023-05-20T09:17:17;102677.88;;;17.66;62.68
70407;BME280;57821;52.202;0.154;2023-05-20T09:19:43;102669.13;;;17.79;61.35
70407;BME280;57821;52.202;0.154;2023-05-20T09:22:10;102669.06;;;17.91;60.83
70407;BME280;57821;52.202;0.154;2023-05-20T09:24:36;102678.66;;;18.01;60.57
70407;BME280;57821;52.202;0.154;2023-05-20T09:27:03;102672.44;;;18.18;60.17
70407;BME280;57821;52.202;0.154;2023-05-20T09:29:32;102682.88;;;18.34;59.45
70407;BME280;57821;52.202;0.154;2023-05-20T09:32:01;102658.31;;;18.43;60.25
70407;BME280;57821;52.202;0.154;2023-05-20T09:34:27;102673.91;;;18.70;59.65
70407;BME280;57821;52.202;0.154;2023-05-20T09:36:56;102673.75;;;18.92;58.07
70407;BME280;57821;52.202;0.154;2023-05-20T09:39:28;102670.88;;;19.20;57.65
70407;BME280;57821;52.202;0.154;2023-05-20T09:42:11;102657.47;;;19.49;57.06
70407;BME280;57821;52.202;0.154;2023-05-20T09:44:41;102674.44;;;19.99;55.57
70407;BME280;57821;52.202;0.154;2023-05-20T09:47:08;102670.47;;;20.36;53.71
70407;BME280;57821;52.202;0.154;2023-05-20T09:49:36;102666.44;;;20.71;51.99
70407;BME280;57821;52.202;0.154;2023-05-20T09:52:03;102670.47;;;20.91;50.93
70407;BME280;57821;52.202;0.154;2023-05-20T09:54:30;102662.09;;;21.20;51.79
70407;BME280;57821;52.202;0.154;2023-05-20T09:56:59;102658.78;;;21.57;50.65
70407;BME280;57821;52.202;0.154;2023-05-20T09:59:26;102657.06;;;22.00;50.18
70407;BME280;57821;52.202;0.154;2023-05-20T10:01:52;102652.69;;;22.38;49.09
70407;BME280;57821;52.202;0.154;2023-05-20T10:04:20;102655.41;;;22.73;48.21
70407;BME280;57821;52.202;0.154;2023-05-20T10:12:31;102646.88;;;23.64;44.50
70407;BME280;57821;52.202;0.154;2023-05-20T10:18:35;102636.31;;;24.23;41.91
70407;BME280;57821;52.202;0.154;2023-05-20T10:20:53;102643.47;;;24.47;42.50
70407;BME280;57821;52.202;0.154;2023-05-20T10:25:51;102646.09;;;24.75;42.91
70407;BME280;57821;52.202;0.154;2023-05-20T10:28:28;102633.97;;;24.94;41.53
70407;BME280;57821;52.202;0.154;2023-05-20T10:30:55;102628.19;;;25.08;41.41
70407;BME280;57821;52.202;0.154;2023-05-20T10:33:23;102623.97;;;25.27;41.30
70407;BME280;57821;52.202;0.154;2023-05-20T10:35:50;102622.28;;;25.49;40.54
70407;BME280;57821;52.202;0.154;2023-05-20T10:38:17;102627.88;;;25.66;40.45
70407;BME280;57821;52.202;0.154;2023-05-20T10:40:44;102628.28;;;25.79;39.72
70407;BME280;57821;52.202;0.154;2023-05-20T10:43:15;102622.25;;;25.97;38.47
70407;BME280;57821;52.202;0.154;2023-05-20T10:45:52;102622.56;;;26.11;38.13
70407;BME280;57821;52.202;0.154;2023-05-20T10:48:29;102617.44;;;26.30;37.30
70407;BME280;57821;52.202;0.154;2023-05-20T10:50:58;102602.53;;;26.48;38.08
70407;BME280;57821;52.202;0.154;2023-05-20T10:53:26;102615.22;;;26.83;37.79
70407;BME280;57821;52.202;0.154;2023-05-20T10:56:00;102598.81;;;26.94;36.08
70407;BME280;57821;52.202;0.154;2023-05-20T10:58:26;102604.25;;;26.91;36.60
70407;BME280;57821;52.202;0.154;2023-05-20T11:00:54;102587.78;;;26.81;35.69
70407;BME280;57821;52.202;0.154;2023-05-20T11:03:21;102603.41;;;26.90;36.57
70407;BME280;57821;52.202;0.154;2023-05-20T11:05:49;102597.03;;;26.94;36.88
70407;BME280;57821;52.202;0.154;2023-05-20T11:08:15;102610.72;;;27.06;35.32
70407;BME280;57821;52.202;0.154;2023-05-20T11:10:57;102596.50;;;27.07;35.37
70407;BME280;57821;52.202;0.154;2023-05-20T11:13:25;102597.34;;;27.07;35.39
70407;BME280;57821;52.202;0.154;2023-05-20T11:15:52;102592.47;;;27.17;35.80
70407;BME280;57821;52.202;0.154;2023-05-20T11:18:19;102590.25;;;27.26;34.82
70407;BME280;57821;52.202;0.154;2023-05-20T11:20:46;102593.53;;;27.33;35.80
70407;BME280;57821;52.202;0.154;2023-05-20T11:23:13;102594.94;;;27.21;34.92
70407;BME280;57821;52.202;0.154;2023-05-20T11:25:40;102601.59;;;27.11;33.96
70407;BME280;57821;52.202;0.154;2023-05-20T11:28:13;102591.03;;;26.89;34.12
70407;BME280;57821;52.202;0.154;2023-05-20T11:30:41;102577.94;;;26.63;33.52
70407;BME280;57821;52.202;0.154;2023-05-20T11:33:11;102591.13;;;26.66;34.93
70407;BME280;57821;52.202;0.154;2023-05-20T11:35:47;102576.50;;;26.76;34.69
70407;BME280;57821;52.202;0.154;2023-05-20T11:38:14;102579.50;;;27.09;34.47
70407;BME280;57821;52.202;0.154;2023-05-20T11:40:54;102574.88;;;27.33;33.40
70407;BME280;57821;52.202;0.154;2023-05-20T11:43:22;102573.53;;;27.43;34.80
70407;BME280;57821;52.202;0.154;2023-05-20T11:45:54;102578.41;;;27.54;32.38
70407;BME280;57821;52.202;0.154;2023-05-20T11:48:22;102569.28;;;27.39;32.65
70407;BME280;57821;52.202;0.154;2023-05-20T11:50:49;102569.59;;;27.13;33.65
70407;BME280;57821;52.202;0.154;2023-05-20T11:53:18;102557.47;;;27.06;33.66
70407;BME280;57821;52.202;0.154;2023-05-20T11:55:49;102555.25;;;26.96;32.96
70407;BME280;57821;52.202;0.154;2023-05-20T11:58:21;102537.50;;;26.75;32.68
70407;BME280;57821;52.202;0.154;2023-05-20T12:00:48;102560.19;;;26.64;32.34
70407;BME280;57821;52.202;0.154;2023-05-20T12:03:22;102550.31;;;26.45;33.30
70407;BME280;57821;52.202;0.154;2023-05-20T12:05:49;102543.69;;;26.34;34.03
70407;BME280;57821;52.202;0.154;2023-05-20T12:08:16;102549.06;;;26.10;33.44
70407;BME280;57821;52.202;0.154;2023-05-20T12:10:42;102545.09;;;25.77;33.39
70407;BME280;57821;52.202;0.154;2023-05-20T12:13:09;102531.31;;;25.44;34.05
70407;BME280;57821;52.202;0.154;2023-05-20T12:15:39;102544.63;;;25.19;34.28
70407;BME280;57821;52.202;0.154;2023-05-20T12:18:06;102537.47;;;24.97;34.40
70407;BME280;57821;52.202;0.154;2023-05-20T12:20:32;102540.84;;;24.75;34.61
70407;BME280;57821;52.202;0.154;2023-05-20T12:22:59;102524.00;;;24.51;34.57
70407;BME280;57821;52.202;0.154;2023-05-20T12:25:26;102533.28;;;24.38;35.07
70407;BME280;57821;52.202;0.154;2023-05-20T12:27:54;102510.97;;;24.17;35.08
70407;BME280;57821;52.202;0.154;2023-05-20T12:30:22;102532.44;;;24.10;35.92
70407;BME280;57821;52.202;0.154;2023-05-20T12:32:50;102537.97;;;24.02;35.96
70407;BME280;57821;52.202;0.154;2023-05-20T12:38:01;102528.56;;;23.64;35.42
70407;BME280;57821;52.202;0.154;2023-05-20T12:40:28;102523.63;;;23.52;36.35
70407;BME280;57821;52.202;0.154;2023-05-20T12:42:54;102512.28;;;23.47;36.32
70407;BME280;57821;52.202;0.154;2023-05-20T12:45:21;102512.66;;;23.35;36.91
70407;BME280;57821;52.202;0.154;2023-05-20T12:47:47;102516.44;;;23.25;36.66
70407;BME280;57821;52.202;0.154;2023-05-20T12:50:14;102516.72;;;23.16;36.95
70407;BME280;57821;52.202;0.154;2023-05-20T12:52:41;102510.69;;;23.11;37.71
70407;BME280;57821;52.202;0.154;2023-05-20T12:55:07;102510.88;;;23.05;37.55
70407;BME280;57821;52.202;0.154;2023-05-20T12:57:34;102512.06;;;22.95;37.45
70407;BME280;57821;52.202;0.154;2023-05-20T13:00:00;102514.69;;;22.95;37.64
70407;BME280;57821;52.202;0.154;2023-05-20T13:02:27;102511.78;;;23.04;36.89
70407;BME280;57821;52.202;0.154;2023-05-20T13:04:54;102504.50;;;23.12;37.52
70407;BME280;57821;52.202;0.154;2023-05-20T13:07:20;102501.00;;;23.11;37.74
70407;BME280;57821;52.202;0.154;2023-05-20T13:09:47;102493.94;;;23.12;38.25
70407;BME280;57821;52.202;0.154;2023-05-20T13:12:13;102497.66;;;23.05;37.78
70407;BME280;57821;52.202;0.154;2023-05-20T13:14:40;102499.91;;;22.87;37.62
70407;BME280;57821;52.202;0.154;2023-05-20T13:17:06;102494.94;;;22.75;37.96
70407;BME280;57821;52.202;0.154;2023-05-20T13:19:33;102496.56;;;22.79;37.87
70407;BME280;57821;52.202;0.154;2023-05-20T13:22:00;102498.16;;;22.86;38.49
70407;BME280;57821;52.202;0.154;2023-05-20T13:24:26;102498.56;;;23.04;38.04
70407;BME280;57821;52.202;0.154;2023-05-20T13:26:53;102481.59;;;23.11;37.69
70407;BME280;57821;52.202;0.154;2023-05-20T13:29:19;102497.53;;;23.08;37.17
70407;BME280;57821;52.202;0.154;2023-05-20T13:31:46;102494.09;;;23.06;38.25
70407;BME280;57821;52.202;0.154;2023-05-20T13:34:12;102488.53;;;23.15;38.15
70407;BME280;57821;52.202;0.154;2023-05-20T13:36:39;102495.63;;;23.13;37.74
70407;BME280;57821;52.202;0.154;2023-05-20T13:39:06;102488.66;;;23.10;37.78
70407;BME280;57821;52.202;0.154;2023-05-20T13:41:32;102488.66;;;23.10;37.87
70407;BME280;57821;52.202;0.154;2023-05-20T13:43:59;102488.00;;;23.02;37.84
70407;BME280;57821;52.202;0.154;2023-05-20T13:46:25;102484.84;;;22.89;38.64
70407;BME280;57821;52.202;0.154;2023-05-20T13:48:52;102486.53;;;22.92;38.16
70407;BME280;57821;52.202;0.154;2023-05-20T13:51:18;102486.53;;;22.92;38.37
70407;BME280;57821;52.202;0.154;2023-05-20T13:53:45;102480.22;;;22.98;38.01
70407;BME280;57821;52.202;0.154;2023-05-20T13:56:12;102476.66;;;23.29;37.78